createdAt,value
2018-01-26T00:00:36.479Z,17.63
2018-01-26T00:03:06.289Z,18.90
2018-01-26T00:05:36.142Z,18.80
2018-01-26T00:08:05.966Z,21.87
2018-01-26T00:10:35.817Z,20.73
2018-01-26T00:13:05.648Z,19.70
2018-01-26T00:15:35.553Z,20.50
2018-01-26T00:18:05.378Z,22.57
2018-01-26T00:20:35.401Z,18.83
2018-01-26T00:23:05.260Z,25.63
2018-01-26T00:25:35.163Z,20.00
2018-01-26T00:28:05.014Z,20.83
2018-01-26T00:30:34.837Z,19.40
2018-01-26T00:33:04.694Z,18.00
2018-01-26T00:35:34.509Z,19.57
2018-01-26T00:38:04.358Z,20.83
2018-01-26T00:40:34.214Z,18.77
2018-01-26T00:43:04.082Z,18.73
2018-01-26T00:45:33.905Z,20.63
2018-01-26T00:48:03.722Z,18.30
2018-01-26T00:50:33.613Z,19.10
2018-01-26T00:53:03.850Z,19.70
2018-01-26T00:55:33.714Z,18.00
2018-01-26T00:58:03.530Z,18.83
2018-01-26T01:00:33.430Z,20.33
2018-01-26T01:03:03.878Z,17.80
2018-01-26T01:05:33.798Z,17.83
2018-01-26T01:08:03.891Z,18.00
2018-01-26T01:10:33.705Z,17.03
2018-01-26T01:13:03.578Z,17.13
2018-01-26T01:15:33.506Z,18.37
2018-01-26T01:18:03.322Z,19.23
2018-01-26T01:20:33.189Z,17.90
2018-01-26T01:23:03.681Z,15.80
2018-01-26T01:25:33.542Z,16.00
2018-01-26T01:28:03.367Z,15.83
2018-01-26T01:30:33.214Z,15.87
2018-01-26T01:33:03.559Z,16.23
2018-01-26T01:35:33.414Z,13.47
2018-01-26T01:38:03.239Z,12.87
2018-01-26T01:40:33.186Z,12.93
2018-01-26T01:43:03.650Z,14.30
2018-01-26T01:45:33.865Z,12.83
2018-01-26T01:48:03.681Z,13.20
2018-01-26T01:50:33.501Z,13.23
2018-01-26T01:53:04.057Z,13.00
2018-01-26T01:55:33.881Z,11.17
2018-01-26T01:58:03.734Z,12.37
2018-01-26T02:00:33.634Z,12.70
2018-01-26T02:03:03.505Z,12.90
2018-01-26T02:05:33.349Z,13.10
2018-01-26T02:08:03.211Z,11.27
2018-01-26T02:10:33.073Z,11.63
2018-01-26T02:13:03.593Z,12.50
2018-01-26T02:15:33.507Z,13.00
2018-01-26T02:18:03.327Z,12.90
2018-01-26T02:20:33.177Z,11.77
2018-01-26T02:23:02.998Z,13.13
2018-01-26T02:25:40.792Z,11.70
2018-01-26T02:28:10.614Z,11.03
2018-01-26T02:30:40.450Z,10.87
2018-01-26T02:33:10.307Z,11.40
2018-01-26T02:35:40.129Z,12.33
2018-01-26T02:38:10.002Z,14.20
2018-01-26T02:40:39.850Z,13.37
2018-01-26T02:43:09.697Z,15.17
2018-01-26T02:45:39.594Z,12.50
2018-01-26T02:48:09.459Z,19.00
2018-01-26T02:50:39.278Z,17.97
2018-01-26T02:53:09.281Z,18.60
2018-01-26T02:55:39.105Z,20.53
2018-01-26T02:58:08.958Z,21.97
2018-01-26T03:00:38.815Z,22.37
2018-01-26T03:03:08.633Z,21.13
2018-01-26T03:05:38.505Z,19.93
2018-01-26T03:08:08.333Z,19.57
2018-01-26T03:10:38.185Z,21.27
2018-01-26T03:13:08.002Z,21.70
2018-01-26T03:15:37.857Z,20.73
2018-01-26T03:18:07.713Z,22.67
2018-01-26T03:20:37.538Z,22.53
2018-01-26T03:23:07.693Z,23.20
2018-01-26T03:25:37.510Z,23.47
2018-01-26T03:28:07.929Z,21.77
2018-01-26T03:30:37.737Z,24.40
2018-01-26T03:33:07.711Z,25.90
2018-01-26T03:35:37.561Z,22.20
2018-01-26T03:38:07.381Z,26.43
2018-01-26T03:40:37.235Z,23.57
2018-01-26T03:43:07.086Z,26.80
2018-01-26T03:45:36.946Z,25.83
2018-01-26T03:48:06.758Z,29.37
2018-01-26T03:50:36.582Z,26.67
2018-01-26T03:53:06.443Z,28.63
2018-01-26T03:55:36.295Z,26.63
2018-01-26T03:58:06.118Z,29.80
2018-01-26T04:00:35.978Z,29.53
2018-01-26T04:03:05.894Z,29.13
2018-01-26T04:05:35.712Z,30.50
2018-01-26T04:08:05.654Z,27.63
2018-01-26T04:10:35.879Z,29.43
2018-01-26T04:13:05.721Z,31.50
2018-01-26T04:15:35.535Z,31.97
2018-01-26T04:18:05.395Z,29.90
2018-01-26T04:20:35.218Z,30.30
2018-01-26T04:23:05.079Z,29.43
2018-01-26T04:25:34.898Z,28.70
2018-01-26T04:28:04.930Z,28.97
2018-01-26T04:30:34.757Z,28.27
2018-01-26T04:33:04.578Z,28.50
2018-01-26T04:35:34.542Z,29.13
2018-01-26T04:38:04.393Z,29.30
2018-01-26T04:40:34.245Z,29.17
2018-01-26T04:43:04.066Z,28.33
2018-01-26T04:45:33.926Z,29.97
2018-01-26T04:48:03.746Z,31.00
2018-01-26T04:50:33.606Z,29.60
2018-01-26T04:53:04.054Z,29.73
2018-01-26T04:55:33.909Z,30.80
2018-01-26T04:58:03.730Z,32.33
2018-01-26T05:00:33.634Z,31.00
2018-01-26T05:03:03.453Z,28.50
2018-01-26T05:05:33.325Z,31.43
2018-01-26T05:08:03.149Z,32.43
2018-01-26T05:10:32.993Z,29.10
2018-01-26T05:13:02.847Z,32.70
2018-01-26T05:15:32.670Z,29.00
2018-01-26T05:18:02.686Z,35.90
2018-01-26T05:20:32.506Z,31.40
2018-01-26T05:23:03.143Z,30.00
2018-01-26T05:25:32.949Z,31.67
2018-01-26T05:28:02.814Z,30.80
2018-01-26T05:30:32.738Z,31.17
2018-01-26T05:33:02.594Z,32.63
2018-01-26T05:35:32.470Z,33.60
2018-01-26T05:38:02.289Z,31.20
2018-01-26T05:40:32.321Z,31.50
2018-01-26T05:43:02.207Z,31.63
2018-01-26T05:45:32.062Z,30.67
2018-01-26T05:48:01.886Z,30.80
2018-01-26T05:50:31.778Z,31.33
2018-01-26T05:53:01.641Z,30.07
2018-01-26T05:55:32.310Z,29.73
2018-01-26T05:58:02.162Z,31.50
2018-01-26T06:00:31.978Z,33.53
2018-01-26T06:03:01.849Z,29.00
2018-01-26T06:05:31.675Z,29.77
2018-01-26T06:08:01.497Z,33.87
2018-01-26T06:10:31.357Z,31.77
2018-01-26T06:13:01.183Z,33.27
2018-01-26T06:15:31.053Z,33.77
2018-01-26T06:18:00.869Z,31.50
2018-01-26T06:20:30.735Z,32.87
2018-01-26T06:23:00.595Z,33.73
2018-01-26T06:25:30.466Z,31.37
2018-01-26T06:28:00.281Z,31.77
2018-01-26T06:30:30.162Z,32.47
2018-01-26T06:33:00.014Z,31.13
2018-01-26T06:35:29.838Z,32.20
2018-01-26T06:37:59.790Z,31.67
2018-01-26T06:40:29.666Z,29.40
2018-01-26T06:42:59.490Z,34.73
2018-01-26T06:45:29.376Z,31.70
2018-01-26T06:47:59.193Z,31.40
2018-01-26T06:50:29.054Z,32.57
2018-01-26T06:52:58.916Z,32.83
2018-01-26T06:55:28.735Z,33.17
2018-01-26T06:57:58.589Z,32.93
2018-01-26T07:00:28.409Z,32.30
2018-01-26T07:02:58.262Z,31.87
2018-01-26T07:05:28.134Z,30.20
2018-01-26T07:07:58.089Z,33.10
2018-01-26T07:10:28.017Z,36.27
2018-01-26T07:12:57.880Z,37.87
2018-01-26T07:15:27.734Z,38.53
2018-01-26T07:17:57.595Z,31.37
2018-01-26T07:20:27.421Z,34.20
2018-01-26T07:22:57.349Z,32.00
2018-01-26T07:25:27.283Z,34.27
2018-01-26T07:27:57.311Z,36.37
2018-01-26T07:30:27.185Z,34.50
2018-01-26T07:32:57.066Z,36.13
2018-01-26T07:35:26.990Z,32.67
2018-01-26T07:37:56.854Z,31.73
2018-01-26T07:40:26.682Z,34.47
2018-01-26T07:42:56.534Z,37.10
2018-01-26T07:45:26.357Z,32.20
2018-01-26T07:47:56.328Z,33.47
2018-01-26T07:50:26.142Z,32.40
2018-01-26T07:52:55.997Z,33.90
2018-01-26T07:55:25.818Z,34.00
2018-01-26T07:57:55.633Z,33.17
2018-01-26T08:00:25.497Z,34.03
2018-01-26T08:02:55.314Z,34.40
2018-01-26T08:05:25.174Z,33.77
2018-01-26T08:07:55.017Z,35.93
2018-01-26T08:10:24.890Z,32.30
2018-01-26T08:12:54.790Z,34.00
2018-01-26T08:15:24.646Z,36.57
2018-01-26T08:17:54.530Z,36.27
2018-01-26T08:20:24.657Z,34.13
2018-01-26T08:22:54.489Z,32.70
2018-01-26T08:25:24.361Z,32.90
2018-01-26T08:27:54.221Z,34.70
2018-01-26T08:30:24.034Z,35.00
2018-01-26T08:32:53.993Z,35.40
2018-01-26T08:35:23.814Z,33.33
2018-01-26T08:37:53.634Z,35.40
2018-01-26T08:40:23.494Z,34.80
2018-01-26T08:42:53.538Z,33.13
2018-01-26T08:45:23.354Z,33.33
2018-01-26T08:47:53.227Z,35.00
2018-01-26T08:50:23.047Z,33.60
2018-01-26T08:52:54.129Z,35.37
2018-01-26T08:55:24.490Z,33.03
2018-01-26T08:57:54.350Z,32.03
2018-01-26T09:00:24.173Z,32.37
2018-01-26T09:02:54.039Z,30.87
2018-01-26T09:05:23.857Z,34.43
2018-01-26T09:07:53.673Z,33.60
2018-01-26T09:10:23.534Z,37.87
2018-01-26T09:12:53.403Z,33.07
2018-01-26T09:15:23.225Z,34.77
2018-01-26T09:17:53.171Z,30.13
2018-01-26T09:20:23.029Z,31.70
2018-01-26T09:22:52.886Z,31.27
2018-01-26T09:25:22.709Z,32.80
2018-01-26T09:27:52.575Z,32.20
2018-01-26T09:30:22.943Z,33.03
2018-01-26T09:32:52.761Z,33.53
2018-01-26T09:35:22.582Z,32.47
2018-01-26T09:37:52.463Z,33.70
2018-01-26T09:40:22.317Z,31.43
2018-01-26T09:42:52.143Z,31.53
2018-01-26T09:45:22.094Z,34.33
2018-01-26T09:47:51.949Z,33.33
2018-01-26T09:50:21.842Z,31.80
2018-01-26T09:52:51.670Z,34.43
2018-01-26T09:55:21.594Z,32.23
2018-01-26T09:57:51.410Z,30.67
2018-01-26T10:00:21.346Z,31.50
2018-01-26T10:02:51.377Z,31.77
2018-01-26T10:05:21.206Z,32.87
2018-01-26T10:07:51.058Z,32.50
2018-01-26T10:10:20.918Z,31.50
2018-01-26T10:12:50.734Z,33.77
2018-01-26T10:15:20.601Z,34.80
2018-01-26T10:17:50.422Z,31.27
2018-01-26T10:20:20.466Z,32.93
2018-01-26T10:22:50.290Z,35.97
2018-01-26T10:25:20.155Z,31.13
2018-01-26T10:27:50.350Z,33.23
2018-01-26T10:30:20.165Z,35.17
2018-01-26T10:32:50.062Z,34.47
2018-01-26T10:35:20.030Z,32.27
2018-01-26T10:37:49.846Z,37.43
2018-01-26T10:40:19.710Z,31.63
2018-01-26T10:42:49.525Z,32.97
2018-01-26T10:45:19.390Z,32.43
2018-01-26T10:47:49.259Z,34.37
2018-01-26T10:50:19.286Z,32.80
2018-01-26T10:52:49.106Z,36.80
2018-01-26T10:55:20.183Z,37.83
2018-01-26T10:57:50.090Z,36.07
2018-01-26T11:00:19.958Z,34.50
2018-01-26T11:02:50.046Z,34.17
2018-01-26T11:05:19.865Z,35.30
2018-01-26T11:07:49.726Z,31.87
2018-01-26T11:10:19.543Z,35.27
2018-01-26T11:12:49.553Z,34.07
2018-01-26T11:15:19.373Z,38.10
2018-01-26T11:17:49.310Z,33.50
2018-01-26T11:20:19.182Z,33.70
2018-01-26T11:22:49.007Z,35.37
2018-01-26T11:25:18.890Z,35.40
2018-01-26T11:27:48.715Z,35.10
2018-01-26T11:30:18.530Z,34.97
2018-01-26T11:32:48.458Z,35.90
2018-01-26T11:35:18.274Z,38.00
2018-01-26T11:37:48.174Z,35.10
2018-01-26T11:40:17.991Z,32.53
2018-01-26T11:42:47.849Z,32.97
2018-01-26T11:45:17.714Z,34.17
2018-01-26T11:47:47.533Z,32.60
2018-01-26T11:50:17.406Z,32.13
2018-01-26T11:52:47.222Z,35.00
2018-01-26T11:55:17.397Z,33.70
2018-01-26T11:57:47.330Z,32.43
2018-01-26T12:00:17.202Z,33.20
2018-01-26T12:02:47.186Z,30.80
2018-01-26T12:05:17.003Z,31.83
2018-01-26T12:07:47.034Z,32.53
2018-01-26T12:12:53.058Z,28.70
2018-01-26T12:15:22.934Z,29.30
2018-01-26T12:17:52.995Z,32.83
2018-01-26T12:20:22.818Z,31.57
2018-01-26T12:22:52.643Z,33.50
2018-01-26T12:25:22.518Z,30.57
2018-01-26T12:27:52.342Z,28.97
2018-01-26T12:30:22.261Z,33.00
2018-01-26T12:32:52.210Z,30.20
2018-01-26T12:35:22.026Z,32.40
2018-01-26T12:37:51.957Z,34.23
2018-01-26T12:40:21.842Z,32.33
2018-01-26T12:42:51.661Z,30.97
2018-01-26T12:45:21.549Z,30.53
2018-01-26T12:47:51.369Z,31.47
2018-01-26T12:50:21.221Z,33.13
2018-01-26T12:52:51.082Z,31.17
2018-01-26T12:55:21.094Z,29.40
2018-01-26T12:57:50.913Z,34.03
2018-01-26T13:00:20.785Z,31.73
2018-01-26T13:02:50.875Z,33.07
2018-01-26T13:05:20.698Z,33.63
2018-01-26T13:07:50.568Z,34.17
2018-01-26T13:10:20.386Z,32.83
2018-01-26T13:12:50.271Z,30.60
2018-01-26T13:15:20.090Z,32.03
2018-01-26T13:17:49.954Z,31.70
2018-01-26T13:20:20.060Z,34.30
2018-01-26T13:22:49.926Z,34.90
2018-01-26T13:25:19.906Z,33.07
2018-01-26T13:27:49.773Z,31.47
2018-01-26T13:30:19.593Z,33.47
2018-01-26T13:32:49.594Z,33.70
2018-01-26T13:35:19.653Z,33.03
2018-01-26T13:37:49.385Z,32.40
2018-01-26T13:40:20.106Z,32.60
2018-01-26T13:42:49.926Z,33.80
2018-01-26T13:45:19.941Z,30.60
2018-01-26T13:47:49.790Z,30.90
2018-01-26T13:50:19.694Z,32.37
2018-01-26T13:52:49.721Z,37.37
2018-01-26T13:55:19.546Z,32.63
2018-01-26T13:57:49.410Z,31.77
2018-01-26T14:00:19.463Z,34.90
2018-01-26T14:02:49.282Z,35.63
2018-01-26T14:05:19.365Z,31.93
2018-01-26T14:07:49.190Z,32.30
2018-01-26T14:10:19.193Z,36.40
2018-01-26T14:12:49.009Z,32.80
2018-01-26T14:15:18.861Z,35.70
2018-01-26T14:17:48.860Z,34.20
2018-01-26T14:20:18.644Z,34.40
2018-01-26T14:22:48.514Z,33.77
2018-01-26T14:25:18.344Z,35.03
2018-01-26T14:27:48.201Z,34.30
2018-01-26T14:30:18.044Z,35.77
2018-01-26T14:32:47.938Z,32.33
2018-01-26T14:35:17.773Z,32.90
2018-01-26T14:37:47.606Z,30.83
2018-01-26T14:40:17.635Z,32.97
2018-01-26T14:42:47.454Z,32.07
2018-01-26T14:45:17.346Z,32.97
2018-01-26T14:47:47.171Z,32.27
2018-01-26T14:50:17.054Z,35.63
2018-01-26T14:52:46.869Z,32.83
2018-01-26T14:55:16.689Z,34.60
2018-01-26T14:57:46.573Z,32.10
2018-01-26T15:00:16.403Z,31.20
2018-01-26T15:02:46.274Z,32.13
2018-01-26T15:05:16.094Z,31.00
2018-01-26T15:07:45.955Z,30.10
2018-01-26T15:10:15.778Z,29.00
2018-01-26T15:12:45.666Z,31.97
2018-01-26T15:15:15.528Z,29.43
2018-01-26T15:17:45.346Z,26.90
2018-01-26T15:20:15.422Z,26.00
2018-01-26T15:22:45.230Z,25.27
2018-01-26T15:25:15.106Z,24.33
2018-01-26T15:27:44.978Z,25.07
2018-01-26T15:30:14.802Z,26.40
2018-01-26T15:32:44.777Z,26.93
2018-01-26T15:35:15.347Z,26.03
2018-01-26T15:37:45.245Z,25.73
2018-01-26T15:40:15.111Z,21.90
2018-01-26T15:42:44.938Z,24.97
2018-01-26T15:45:14.826Z,23.30
2018-01-26T15:47:44.659Z,25.57
2018-01-26T15:50:14.477Z,25.27
2018-01-26T15:52:44.625Z,24.00
2018-01-26T15:55:14.535Z,24.23
2018-01-26T15:57:44.591Z,21.97
2018-01-26T16:00:14.418Z,22.00
2018-01-26T16:02:44.297Z,22.47
2018-01-26T16:05:14.127Z,21.63
2018-01-26T16:07:44.010Z,19.57
2018-01-26T16:10:13.826Z,18.60
2018-01-26T16:12:43.689Z,21.10
2018-01-26T16:15:13.551Z,19.10
2018-01-26T16:17:43.421Z,23.30
2018-01-26T16:20:13.245Z,21.40
2018-01-26T16:22:44.663Z,21.53
2018-01-26T16:25:14.481Z,19.97
2018-01-26T16:27:44.373Z,23.57
2018-01-26T16:30:14.517Z,21.10
2018-01-26T16:32:44.545Z,22.87
2018-01-26T16:35:14.717Z,20.40
2018-01-26T16:37:44.586Z,22.37
2018-01-26T16:40:14.443Z,18.60
2018-01-26T16:42:44.284Z,20.03
2018-01-26T16:45:14.189Z,23.13
2018-01-26T16:47:44.020Z,19.87
2018-01-26T16:50:13.894Z,22.60
2018-01-26T16:52:43.782Z,23.40
2018-01-26T16:55:13.606Z,24.20
2018-01-26T16:57:43.464Z,23.80
2018-01-26T17:00:13.773Z,18.87
2018-01-26T17:02:43.633Z,18.63
2018-01-26T17:05:13.453Z,17.37
2018-01-26T17:07:43.455Z,19.70
2018-01-26T17:10:13.330Z,18.37
2018-01-26T17:12:43.164Z,29.07
2018-01-26T17:15:13.022Z,26.40
2018-01-26T17:17:42.874Z,20.13
2018-01-26T17:20:12.777Z,20.97
2018-01-26T17:22:42.813Z,20.13
2018-01-26T17:25:12.737Z,18.97
2018-01-26T17:27:42.610Z,14.80
2018-01-26T17:30:12.433Z,17.23
2018-01-26T17:32:42.326Z,18.90
2018-01-26T17:35:12.146Z,20.03
2018-01-26T17:37:42.006Z,16.90
2018-01-26T17:40:11.858Z,17.13
2018-01-26T17:42:41.673Z,16.77
2018-01-26T17:45:11.558Z,16.90
2018-01-26T17:47:41.374Z,14.70
2018-01-26T17:50:11.303Z,14.10
2018-01-26T17:52:41.122Z,15.17
2018-01-26T17:55:11.009Z,14.83
2018-01-26T17:57:40.830Z,15.43
2018-01-26T18:00:10.649Z,14.57
2018-01-26T18:02:40.630Z,14.83
2018-01-26T18:05:10.454Z,14.33
2018-01-26T18:07:40.325Z,16.53
2018-01-26T18:10:10.146Z,15.37
2018-01-26T18:12:40.017Z,17.47
2018-01-26T18:15:09.861Z,15.80
2018-01-26T18:17:39.890Z,15.90
2018-01-26T18:20:09.707Z,16.33
2018-01-26T18:22:39.553Z,16.33
2018-01-26T18:25:09.570Z,18.00
2018-01-26T18:27:39.386Z,15.37
2018-01-26T18:30:09.238Z,16.40
2018-01-26T18:32:39.086Z,16.30
2018-01-26T18:35:08.974Z,16.83
2018-01-26T18:37:38.798Z,15.27
2018-01-26T18:40:08.695Z,18.27
2018-01-26T18:42:38.513Z,14.83
2018-01-26T18:45:08.681Z,16.93
2018-01-26T18:47:38.517Z,15.40
2018-01-26T18:50:08.382Z,15.90
2018-01-26T18:52:38.265Z,15.40
2018-01-26T18:55:08.576Z,14.60
2018-01-26T18:57:38.430Z,14.70
2018-01-26T19:00:08.459Z,14.70
2018-01-26T19:02:38.278Z,14.97
2018-01-26T19:05:08.138Z,12.70
2018-01-26T19:07:38.038Z,14.07
2018-01-26T19:10:07.861Z,14.90
2018-01-26T19:12:37.685Z,17.03
2018-01-26T19:15:07.578Z,13.67
2018-01-26T19:17:37.411Z,17.40
2018-01-26T19:20:07.286Z,14.97
2018-01-26T19:22:37.159Z,14.57
2018-01-26T19:25:07.018Z,15.43
2018-01-26T19:27:36.846Z,13.80
2018-01-26T19:30:06.706Z,14.47
2018-01-26T19:32:36.526Z,15.00
2018-01-26T19:35:06.427Z,15.40
2018-01-26T19:37:36.277Z,15.10
2018-01-26T19:40:06.106Z,15.00
2018-01-26T19:42:35.970Z,15.17
2018-01-26T19:45:05.794Z,17.50
2018-01-26T19:47:35.658Z,15.80
2018-01-26T19:50:05.486Z,15.57
2018-01-26T19:52:35.373Z,13.90
2018-01-26T19:55:05.198Z,16.47
2018-01-26T19:57:35.065Z,14.83
2018-01-26T20:00:04.885Z,13.73
2018-01-26T20:02:34.709Z,15.27
2018-01-26T20:05:16.342Z,11.97
2018-01-26T20:07:52.090Z,11.37
2018-01-26T20:10:21.945Z,13.57
2018-01-26T20:12:57.485Z,11.83
2018-01-26T20:15:27.587Z,13.93
2018-01-26T20:17:57.402Z,13.63
2018-01-26T20:20:27.250Z,14.27
2018-01-26T20:22:57.110Z,12.67
2018-01-26T20:25:26.922Z,11.80
2018-01-26T20:27:56.783Z,12.03
2018-01-26T20:30:26.608Z,12.30
2018-01-26T20:32:56.470Z,12.10
2018-01-26T20:35:26.293Z,11.97
2018-01-26T20:37:56.217Z,11.57
2018-01-26T20:40:26.088Z,11.50
2018-01-26T20:42:55.921Z,12.50
2018-01-26T20:45:25.893Z,10.00
2018-01-26T20:47:55.759Z,11.87
2018-01-26T20:50:25.585Z,10.90
2018-01-26T20:52:55.473Z,11.53
2018-01-26T20:55:25.297Z,12.33
2018-01-26T20:57:55.221Z,11.10
2018-01-26T21:00:25.045Z,11.10
2018-01-26T21:02:54.902Z,11.20
2018-01-26T21:05:24.766Z,11.63
2018-01-26T21:07:54.582Z,10.97
2018-01-26T21:10:24.414Z,10.27
2018-01-26T21:12:54.577Z,11.77
2018-01-26T21:15:24.402Z,9.20
2018-01-26T21:17:54.257Z,10.83
2018-01-26T21:20:24.070Z,11.53
2018-01-26T21:22:53.929Z,10.50
2018-01-26T21:25:23.746Z,9.27
2018-01-26T21:27:53.606Z,10.43
2018-01-26T21:30:23.438Z,10.50
2018-01-26T21:33:03.006Z,9.43
2018-01-26T21:35:32.825Z,8.77
2018-01-26T21:38:02.650Z,11.53
2018-01-26T21:40:33.395Z,9.97
2018-01-26T21:43:08.110Z,10.37
2018-01-26T21:45:37.961Z,9.30
2018-01-26T21:48:16.566Z,10.50
2018-01-26T21:50:46.425Z,9.77
2018-01-26T21:53:16.305Z,9.57
2018-01-26T21:55:47.033Z,9.03
2018-01-26T21:58:16.888Z,8.80
2018-01-26T22:00:50.848Z,9.90
2018-01-26T22:03:20.751Z,10.30
2018-01-26T22:05:50.737Z,11.80
2018-01-26T22:08:20.615Z,9.47
2018-01-26T22:10:51.409Z,9.53
2018-01-26T22:13:21.270Z,9.70
2018-01-26T22:15:54.949Z,9.93
2018-01-26T22:18:24.757Z,8.83
2018-01-26T22:20:54.581Z,11.60
2018-01-26T22:23:24.715Z,10.93
2018-01-26T22:25:54.529Z,10.10
2018-01-26T22:28:25.358Z,11.23
2018-01-26T22:30:55.174Z,9.50
2018-01-26T22:33:25.026Z,11.00
2018-01-26T22:35:58.661Z,10.10
2018-01-26T22:38:28.535Z,11.70
2018-01-26T22:40:58.347Z,11.37
2018-01-26T22:43:28.209Z,10.90
2018-01-26T22:46:02.163Z,12.77
2018-01-26T22:48:32.069Z,9.47
2018-01-26T22:51:02.814Z,10.17
2018-01-26T22:53:32.637Z,12.43
2018-01-26T22:56:02.498Z,12.40
2018-01-26T22:58:32.317Z,9.90
2018-01-26T23:01:02.202Z,12.10
2018-01-26T23:03:32.102Z,10.97
2018-01-26T23:06:01.999Z,11.73
2018-01-26T23:08:31.818Z,14.70
2018-01-26T23:13:52.526Z,16.87
2018-01-26T23:16:22.382Z,16.93
2018-01-26T23:18:52.278Z,16.10
2018-01-26T23:21:22.697Z,15.70
2018-01-26T23:23:52.626Z,17.80
2018-01-26T23:26:22.506Z,21.60
2018-01-26T23:28:52.460Z,15.90
2018-01-26T23:31:22.323Z,16.50
2018-01-26T23:33:59.246Z,17.77
2018-01-26T23:36:30.106Z,17.80
2018-01-26T23:38:59.947Z,17.87
2018-01-26T23:41:36.063Z,15.13
2018-01-26T23:44:05.887Z,18.37
2018-01-26T23:46:35.746Z,14.60
2018-01-26T23:49:05.561Z,14.90
2018-01-26T23:51:35.466Z,13.40
2018-01-26T23:54:10.269Z,15.27
2018-01-26T23:56:40.173Z,15.40
2018-01-26T23:59:10.025Z,14.57
